Aérodrome :
LOGIN :

S'inscrire | Disclaimer

   EN    FR    IT 

 










Légende :    VFR   VFR Marginal   IFR   IFR Intensif   IFR Très Intensif
Visi : 
Plafond : 
>= 8 km
>= 3000ft
5 à 8 km
1000 à 3000 ft
1500m à 5 km
500 à 1000 ft
800 à 1500m
200 à 500 ft
< 800m
< 200 ft
Symboles :   Orages  Brouillard  Fortes neiges  Fortes précipitations  Vent > 20 kt
SIGMETs :   Divers  Orages  Givrage  Turbulence  Onde Orograph.  Cendres Volcan.







- Altitude de l'aérodrome : 297 ft
- Code IATA : UIP
- Voir les cartes d'approche


LFRQ - Quimper Pluguffan

DERNIER METAR :
  • 222330Z AUTO 18005KT 9999 FEW003 BKN062 OVC072 09/09 Q1023

METARs EXPIRÉS :
  • 222300Z AUTO 18004KT 4500 BR VV/// 09/09 Q1023 TEMPO 22015G25KT 2000 RADZ OVC002
  • 222230Z AUTO 18004KT 0900 R28/1100D FG VV/// 08/08 Q1024 TEMPO 22015G25KT 2000 RADZ OVC002
  • 222200Z AUTO VRB03KT 1400 R28/1700N BR VV/// 08/08 Q1024 BECMG 19013KT 5000 -RA OVC004
  • 222130Z AUTO 18002KT 1400 R28/1700N BR VV/// 08/08 Q1023 BECMG 19013KT 5000 -RA OVC004
  • 222100Z AUTO 20003KT 0900 R28/1100N FG VV/// 08/08 Q1024 BECMG 9999 -RA BKN010 OVC050

TAF AMD TAF LFRQ
Valide du 22 à 20h jusqu'au 23 à 03h UTC


222040Z 2220/2303 22003KT 3000 BR BKN003 BKN008
TEMPO 2220/2223 OVC001
BECMG 2223/2224 19013KT 5000 -RA OVC004
TEMPO 2300/2303 22015G25KT 2000 RADZ OVC002
Pas de NOTAMs connus pour ce terrain.



MET'MAP, la Météo Aéronautique d'un coup d'oeil ! - Copyright ORBIFLY Décembre 2007 - Disclaimer

ORBIFLY MET'MAP TEAM :

Programmation & Développement : Alexandra Zaïnal
Conception & Développement : Baudouin d'Aumeries
Co-Programmation & Développement : Marc-Olivier Méhu
Soutien technique & logistique : Manuel Goepfert

Contact : metmap@orbifly.com




SOURCES & CREDITS :

   NOAA